sensor_id;sensor_type;location;lat;lon;timestamp;temperature;humidity
50907;DHT22;36882;27.680;85.304;2023-09-19T00:01:16;22.30;99.90
50907;DHT22;36882;27.680;85.304;2023-09-19T00:03:49;22.30;99.90
50907;DHT22;36882;27.680;85.304;2023-09-19T00:06:20;22.20;99.90
50907;DHT22;36882;27.680;85.304;2023-09-19T00:08:50;22.30;99.90
50907;DHT22;36882;27.680;85.304;2023-09-19T00:11:20;22.30;99.90
50907;DHT22;36882;27.680;85.304;2023-09-19T00:13:51;22.20;99.90
50907;DHT22;36882;27.680;85.304;2023-09-19T00:16:21;22.10;99.90
50907;DHT22;36882;27.680;85.304;2023-09-19T00:18:52;22.10;99.90
50907;DHT22;36882;27.680;85.304;2023-09-19T00:21:23;22.40;99.90
50907;DHT22;36882;27.680;85.304;2023-09-19T00:23:53;22.40;99.90
50907;DHT22;36882;27.680;85.304;2023-09-19T00:26:24;22.40;99.90
50907;DHT22;36882;27.680;85.304;2023-09-19T00:28:55;22.30;99.90
50907;DHT22;36882;27.680;85.304;2023-09-19T00:31:26;22.20;99.90
50907;DHT22;36882;27.680;85.304;2023-09-19T00:33:59;22.30;99.90
50907;DHT22;36882;27.680;85.304;2023-09-19T00:36:39;22.40;99.90
50907;DHT22;36882;27.680;85.304;2023-09-19T00:39:09;22.40;99.90
50907;DHT22;36882;27.680;85.304;2023-09-19T00:41:40;22.50;99.90
50907;DHT22;36882;27.680;85.304;2023-09-19T00:44:11;22.50;99.90
50907;DHT22;36882;27.680;85.304;2023-09-19T00:46:42;22.60;99.90
50907;DHT22;36882;27.680;85.304;2023-09-19T00:49:14;22.60;99.90
50907;DHT22;36882;27.680;85.304;2023-09-19T00:51:45;22.60;99.90
50907;DHT22;36882;27.680;85.304;2023-09-19T00:54:17;22.70;99.90
50907;DHT22;36882;27.680;85.304;2023-09-19T00:56:48;22.90;99.90
50907;DHT22;36882;27.680;85.304;2023-09-19T00:59:20;23.00;99.90
50907;DHT22;36882;27.680;85.304;2023-09-19T01:01:52;23.20;99.90
50907;DHT22;36882;27.680;85.304;2023-09-19T01:04:25;23.30;99.90
50907;DHT22;36882;27.680;85.304;2023-09-19T01:06:57;23.20;99.90
50907;DHT22;36882;27.680;85.304;2023-09-19T01:09:28;23.40;99.90
50907;DHT22;36882;27.680;85.304;2023-09-19T01:12:02;23.50;99.90
50907;DHT22;36882;27.680;85.304;2023-09-19T01:15:06;23.60;99.90
50907;DHT22;36882;27.680;85.304;2023-09-19T01:17:46;23.70;99.90
50907;DHT22;36882;27.680;85.304;2023-09-19T01:20:27;23.80;99.90
50907;DHT22;36882;27.680;85.304;2023-09-19T01:29:12;23.90;99.90
50907;DHT22;36882;27.680;85.304;2023-09-19T01:31:49;24.20;99.90
50907;DHT22;36882;27.680;85.304;2023-09-19T01:34:24;24.10;99.90
50907;DHT22;36882;27.680;85.304;2023-09-19T01:36:56;24.10;99.90
50907;DHT22;36882;27.680;85.304;2023-09-19T01:39:26;24.00;99.90
50907;DHT22;36882;27.680;85.304;2023-09-19T01:42:05;23.90;99.90
50907;DHT22;36882;27.680;85.304;2023-09-19T01:44:59;23.90;99.90
50907;DHT22;36882;27.680;85.304;2023-09-19T01:47:33;24.20;99.90
50907;DHT22;36882;27.680;85.304;2023-09-19T01:52:48;24.20;99.90
50907;DHT22;36882;27.680;85.304;2023-09-19T01:55:20;24.30;99.90
50907;DHT22;36882;27.680;85.304;2023-09-19T01:58:06;24.20;99.90
50907;DHT22;36882;27.680;85.304;2023-09-19T02:00:41;24.40;99.90
50907;DHT22;36882;27.680;85.304;2023-09-19T02:03:13;24.60;99.90
50907;DHT22;36882;27.680;85.304;2023-09-19T02:05:51;24.80;99.90
50907;DHT22;36882;27.680;85.304;2023-09-19T02:08:23;24.70;99.90
50907;DHT22;36882;27.680;85.304;2023-09-19T02:10:54;24.80;99.90
50907;DHT22;36882;27.680;85.304;2023-09-19T02:13:24;24.80;99.90
50907;DHT22;36882;27.680;85.304;2023-09-19T02:15:57;24.50;99.90
50907;DHT22;36882;27.680;85.304;2023-09-19T02:18:28;24.10;99.90
50907;DHT22;36882;27.680;85.304;2023-09-19T02:20:58;24.40;99.90
50907;DHT22;36882;27.680;85.304;2023-09-19T02:23:28;24.70;99.90
50907;DHT22;36882;27.680;85.304;2023-09-19T02:26:00;24.90;99.90
50907;DHT22;36882;27.680;85.304;2023-09-19T02:28:30;25.10;99.90
50907;DHT22;36882;27.680;85.304;2023-09-19T02:31:02;25.10;99.90
50907;DHT22;36882;27.680;85.304;2023-09-19T02:33:35;25.10;99.90
50907;DHT22;36882;27.680;85.304;2023-09-19T02:36:07;24.70;99.90
50907;DHT22;36882;27.680;85.304;2023-09-19T02:38:38;24.90;99.90
50907;DHT22;36882;27.680;85.304;2023-09-19T02:41:08;25.10;99.90
50907;DHT22;36882;27.680;85.304;2023-09-19T02:43:39;25.40;99.90
50907;DHT22;36882;27.680;85.304;2023-09-19T02:46:09;25.20;99.90
50907;DHT22;36882;27.680;85.304;2023-09-19T02:48:41;25.50;99.90
50907;DHT22;36882;27.680;85.304;2023-09-19T02:51:11;25.70;99.90
50907;DHT22;36882;27.680;85.304;2023-09-19T02:53:43;25.70;99.90
50907;DHT22;36882;27.680;85.304;2023-09-19T02:56:13;25.70;99.90
50907;DHT22;36882;27.680;85.304;2023-09-19T02:58:45;25.40;99.90
50907;DHT22;36882;27.680;85.304;2023-09-19T03:01:18;25.10;99.90
50907;DHT22;36882;27.680;85.304;2023-09-19T03:03:49;25.10;99.90
50907;DHT22;36882;27.680;85.304;2023-09-19T03:06:19;25.30;99.90
50907;DHT22;36882;27.680;85.304;2023-09-19T03:08:50;25.60;99.90
50907;DHT22;36882;27.680;85.304;2023-09-19T03:11:21;26.10;99.90
50907;DHT22;36882;27.680;85.304;2023-09-19T03:13:53;26.20;99.90
50907;DHT22;36882;27.680;85.304;2023-09-19T03:16:24;26.10;99.90
50907;DHT22;36882;27.680;85.304;2023-09-19T03:18:55;26.20;99.90
50907;DHT22;36882;27.680;85.304;2023-09-19T03:21:25;26.60;99.90
50907;DHT22;36882;27.680;85.304;2023-09-19T03:23:56;26.80;99.90
50907;DHT22;36882;27.680;85.304;2023-09-19T03:26:26;27.20;99.90
50907;DHT22;36882;27.680;85.304;2023-09-19T03:28:56;27.20;99.90
50907;DHT22;36882;27.680;85.304;2023-09-19T03:31:27;27.40;99.90
50907;DHT22;36882;27.680;85.304;2023-09-19T03:33:58;27.50;99.90
50907;DHT22;36882;27.680;85.304;2023-09-19T03:36:29;27.40;99.90
50907;DHT22;36882;27.680;85.304;2023-09-19T03:39:00;27.50;99.90
50907;DHT22;36882;27.680;85.304;2023-09-19T03:41:32;27.40;99.90
50907;DHT22;36882;27.680;85.304;2023-09-19T03:44:03;27.80;99.90
50907;DHT22;36882;27.680;85.304;2023-09-19T03:46:34;27.70;99.90
50907;DHT22;36882;27.680;85.304;2023-09-19T03:49:05;27.90;99.90
50907;DHT22;36882;27.680;85.304;2023-09-19T03:51:36;27.60;99.60
50907;DHT22;36882;27.680;85.304;2023-09-19T03:54:07;27.70;99.90
50907;DHT22;36882;27.680;85.304;2023-09-19T03:56:38;27.80;99.70
50907;DHT22;36882;27.680;85.304;2023-09-19T03:59:12;27.50;99.90
50907;DHT22;36882;27.680;85.304;2023-09-19T04:01:43;27.40;99.60
50907;DHT22;36882;27.680;85.304;2023-09-19T04:04:13;27.50;99.90
50907;DHT22;36882;27.680;85.304;2023-09-19T04:06:45;27.50;99.90
50907;DHT22;36882;27.680;85.304;2023-09-19T04:09:15;27.60;99.20
50907;DHT22;36882;27.680;85.304;2023-09-19T04:11:47;27.70;99.50
50907;DHT22;36882;27.680;85.304;2023-09-19T04:14:19;27.40;99.90
50907;DHT22;36882;27.680;85.304;2023-09-19T04:16:50;27.40;99.80
50907;DHT22;36882;27.680;85.304;2023-09-19T04:19:20;27.30;99.90
50907;DHT22;36882;27.680;85.304;2023-09-19T04:21:52;27.70;99.80
50907;DHT22;36882;27.680;85.304;2023-09-19T04:24:23;27.10;99.30
50907;DHT22;36882;27.680;85.304;2023-09-19T04:26:53;27.10;99.50
50907;DHT22;36882;27.680;85.304;2023-09-19T04:29:23;26.80;99.90
50907;DHT22;36882;27.680;85.304;2023-09-19T04:31:54;26.80;99.40
50907;DHT22;36882;27.680;85.304;2023-09-19T04:34:24;26.80;99.40
50907;DHT22;36882;27.680;85.304;2023-09-19T04:36:58;27.00;99.60
50907;DHT22;36882;27.680;85.304;2023-09-19T04:39:30;27.30;99.80
50907;DHT22;36882;27.680;85.304;2023-09-19T04:42:00;27.30;99.30
50907;DHT22;36882;27.680;85.304;2023-09-19T04:44:31;27.30;98.80
50907;DHT22;36882;27.680;85.304;2023-09-19T04:47:01;27.20;98.90
50907;DHT22;36882;27.680;85.304;2023-09-19T04:49:32;27.10;99.50
50907;DHT22;36882;27.680;85.304;2023-09-19T04:52:04;27.20;98.90
50907;DHT22;36882;27.680;85.304;2023-09-19T04:54:34;27.30;98.60
50907;DHT22;36882;27.680;85.304;2023-09-19T04:57:05;27.40;99.20
50907;DHT22;36882;27.680;85.304;2023-09-19T04:59:35;27.10;98.70
50907;DHT22;36882;27.680;85.304;2023-09-19T05:02:06;27.10;98.60
50907;DHT22;36882;27.680;85.304;2023-09-19T05:04:38;27.40;98.90
50907;DHT22;36882;27.680;85.304;2023-09-19T05:07:08;27.60;99.00
50907;DHT22;36882;27.680;85.304;2023-09-19T05:09:41;27.80;98.60
50907;DHT22;36882;27.680;85.304;2023-09-19T05:12:12;28.00;98.50
50907;DHT22;36882;27.680;85.304;2023-09-19T05:14:43;28.20;98.60
50907;DHT22;36882;27.680;85.304;2023-09-19T05:17:25;28.30;97.60
50907;DHT22;36882;27.680;85.304;2023-09-19T05:20:06;28.30;98.30
50907;DHT22;36882;27.680;85.304;2023-09-19T05:22:44;28.50;98.00
50907;DHT22;36882;27.680;85.304;2023-09-19T05:25:16;28.60;97.30
50907;DHT22;36882;27.680;85.304;2023-09-19T05:27:48;28.60;97.60
50907;DHT22;36882;27.680;85.304;2023-09-19T05:30:20;28.60;96.00
50907;DHT22;36882;27.680;85.304;2023-09-19T05:32:51;28.50;96.80
50907;DHT22;36882;27.680;85.304;2023-09-19T05:35:22;28.70;96.90
50907;DHT22;36882;27.680;85.304;2023-09-19T05:37:54;28.90;97.00
50907;DHT22;36882;27.680;85.304;2023-09-19T05:40:27;28.90;98.10
50907;DHT22;36882;27.680;85.304;2023-09-19T05:42:58;29.20;97.20
50907;DHT22;36882;27.680;85.304;2023-09-19T05:45:28;29.30;96.90
50907;DHT22;36882;27.680;85.304;2023-09-19T05:48:08;29.30;97.50
50907;DHT22;36882;27.680;85.304;2023-09-19T05:50:39;29.50;96.60
50907;DHT22;36882;27.680;85.304;2023-09-19T06:28:12;29.70;97.20
50907;DHT22;36882;27.680;85.304;2023-09-19T06:30:43;29.60;97.40
50907;DHT22;36882;27.680;85.304;2023-09-19T06:33:13;29.60;96.90
50907;DHT22;36882;27.680;85.304;2023-09-19T06:35:49;29.60;96.90
50907;DHT22;36882;27.680;85.304;2023-09-19T06:38:21;29.80;96.80
50907;DHT22;36882;27.680;85.304;2023-09-19T06:40:52;29.90;96.70
50907;DHT22;36882;27.680;85.304;2023-09-19T06:43:24;30.00;96.80
50907;DHT22;36882;27.680;85.304;2023-09-19T06:45:54;29.90;97.00
50907;DHT22;36882;27.680;85.304;2023-09-19T06:48:25;29.70;97.50
50907;DHT22;36882;27.680;85.304;2023-09-19T06:50:57;29.90;97.90
50907;DHT22;36882;27.680;85.304;2023-09-19T06:53:34;29.60;97.20
50907;DHT22;36882;27.680;85.304;2023-09-19T06:56:08;29.30;97.10
50907;DHT22;36882;27.680;85.304;2023-09-19T06:58:39;29.00;96.70
50907;DHT22;36882;27.680;85.304;2023-09-19T07:01:09;28.90;96.70
50907;DHT22;36882;27.680;85.304;2023-09-19T07:03:40;28.80;96.90
50907;DHT22;36882;27.680;85.304;2023-09-19T07:06:10;28.90;97.10
50907;DHT22;36882;27.680;85.304;2023-09-19T07:08:41;28.90;97.60
50907;DHT22;36882;27.680;85.304;2023-09-19T07:11:13;29.00;96.90
50907;DHT22;36882;27.680;85.304;2023-09-19T07:13:44;29.20;96.30
50907;DHT22;36882;27.680;85.304;2023-09-19T07:16:15;29.50;97.00
50907;DHT22;36882;27.680;85.304;2023-09-19T07:18:57;29.60;96.30
50907;DHT22;36882;27.680;85.304;2023-09-19T07:21:28;29.80;96.90
50907;DHT22;36882;27.680;85.304;2023-09-19T07:24:01;29.50;97.30
50907;DHT22;36882;27.680;85.304;2023-09-19T07:26:35;29.40;97.10
50907;DHT22;36882;27.680;85.304;2023-09-19T07:29:05;29.10;97.60
50907;DHT22;36882;27.680;85.304;2023-09-19T07:31:36;29.20;97.50
50907;DHT22;36882;27.680;85.304;2023-09-19T07:34:06;29.00;97.10
50907;DHT22;36882;27.680;85.304;2023-09-19T07:36:38;29.00;97.80
50907;DHT22;36882;27.680;85.304;2023-09-19T07:39:10;29.10;97.60
50907;DHT22;36882;27.680;85.304;2023-09-19T07:41:50;28.80;97.90
50907;DHT22;36882;27.680;85.304;2023-09-19T07:44:20;28.50;98.10
50907;DHT22;36882;27.680;85.304;2023-09-19T07:46:51;28.60;98.70
50907;DHT22;36882;27.680;85.304;2023-09-19T07:49:23;28.40;97.80
50907;DHT22;36882;27.680;85.304;2023-09-19T07:51:54;28.20;99.50
50907;DHT22;36882;27.680;85.304;2023-09-19T07:54:26;27.70;99.90
50907;DHT22;36882;27.680;85.304;2023-09-19T07:57:00;27.10;99.90
50907;DHT22;36882;27.680;85.304;2023-09-19T07:59:31;27.10;99.90
50907;DHT22;36882;27.680;85.304;2023-09-19T08:02:01;26.70;99.90
50907;DHT22;36882;27.680;85.304;2023-09-19T08:04:34;26.90;99.90
50907;DHT22;36882;27.680;85.304;2023-09-19T08:07:05;27.00;99.90
50907;DHT22;36882;27.680;85.304;2023-09-19T08:09:38;27.20;99.90
50907;DHT22;36882;27.680;85.304;2023-09-19T08:12:09;27.20;99.90
50907;DHT22;36882;27.680;85.304;2023-09-19T08:14:40;27.40;99.90
50907;DHT22;36882;27.680;85.304;2023-09-19T08:17:13;27.20;99.90
50907;DHT22;36882;27.680;85.304;2023-09-19T08:19:45;26.70;99.90
50907;DHT22;36882;27.680;85.304;2023-09-19T08:22:16;27.00;99.90
50907;DHT22;36882;27.680;85.304;2023-09-19T08:24:46;27.00;99.90
50907;DHT22;36882;27.680;85.304;2023-09-19T08:27:17;27.10;99.90
50907;DHT22;36882;27.680;85.304;2023-09-19T08:29:49;26.90;99.90
50907;DHT22;36882;27.680;85.304;2023-09-19T08:32:21;26.60;99.90
50907;DHT22;36882;27.680;85.304;2023-09-19T08:34:54;26.50;99.90
50907;DHT22;36882;27.680;85.304;2023-09-19T08:37:25;26.40;99.90
50907;DHT22;36882;27.680;85.304;2023-09-19T08:39:55;26.30;99.90
50907;DHT22;36882;27.680;85.304;2023-09-19T08:42:28;26.20;99.90
50907;DHT22;36882;27.680;85.304;2023-09-19T08:44:58;26.00;99.90
50907;DHT22;36882;27.680;85.304;2023-09-19T08:47:53;26.00;99.90
50907;DHT22;36882;27.680;85.304;2023-09-19T08:50:29;25.80;99.90
50907;DHT22;36882;27.680;85.304;2023-09-19T08:53:11;25.90;99.90
50907;DHT22;36882;27.680;85.304;2023-09-19T08:55:46;25.90;99.90
50907;DHT22;36882;27.680;85.304;2023-09-19T08:58:20;26.00;99.90
50907;DHT22;36882;27.680;85.304;2023-09-19T09:00:53;26.10;99.90
50907;DHT22;36882;27.680;85.304;2023-09-19T09:03:25;26.10;99.90
50907;DHT22;36882;27.680;85.304;2023-09-19T09:05:56;25.70;99.90
50907;DHT22;36882;27.680;85.304;2023-09-19T09:08:28;25.30;99.90
50907;DHT22;36882;27.680;85.304;2023-09-19T09:11:01;25.30;99.90
50907;DHT22;36882;27.680;85.304;2023-09-19T09:13:32;24.70;99.90
50907;DHT22;36882;27.680;85.304;2023-09-19T09:16:04;24.50;99.90
50907;DHT22;36882;27.680;85.304;2023-09-19T09:18:34;24.50;99.90
50907;DHT22;36882;27.680;85.304;2023-09-19T09:21:05;24.70;99.90
50907;DHT22;36882;27.680;85.304;2023-09-19T09:23:39;24.90;99.90
50907;DHT22;36882;27.680;85.304;2023-09-19T09:26:10;24.90;99.90
50907;DHT22;36882;27.680;85.304;2023-09-19T09:28:45;24.70;99.90
50907;DHT22;36882;27.680;85.304;2023-09-19T09:31:24;24.70;99.90
50907;DHT22;36882;27.680;85.304;2023-09-19T09:33:56;24.70;99.90
50907;DHT22;36882;27.680;85.304;2023-09-19T09:36:40;24.70;99.90
50907;DHT22;36882;27.680;85.304;2023-09-19T09:39:11;24.80;99.90
50907;DHT22;36882;27.680;85.304;2023-09-19T09:41:49;24.40;99.90
50907;DHT22;36882;27.680;85.304;2023-09-19T09:44:20;24.10;99.90
50907;DHT22;36882;27.680;85.304;2023-09-19T09:46:50;24.00;99.90
50907;DHT22;36882;27.680;85.304;2023-09-19T09:49:25;23.80;99.90
50907;DHT22;36882;27.680;85.304;2023-09-19T09:54:39;23.60;99.90
50907;DHT22;36882;27.680;85.304;2023-09-19T09:57:28;23.60;99.90
50907;DHT22;36882;27.680;85.304;2023-09-19T10:00:00;23.50;99.90
50907;DHT22;36882;27.680;85.304;2023-09-19T10:02:43;23.50;99.90
50907;DHT22;36882;27.680;85.304;2023-09-19T10:05:18;23.30;99.90
50907;DHT22;36882;27.680;85.304;2023-09-19T10:08:11;23.30;99.90
50907;DHT22;36882;27.680;85.304;2023-09-19T10:10:49;23.30;99.90
50907;DHT22;36882;27.680;85.304;2023-09-19T10:13:22;23.20;99.90
50907;DHT22;36882;27.680;85.304;2023-09-19T10:15:59;23.20;99.90
50907;DHT22;36882;27.680;85.304;2023-09-19T10:18:36;23.00;99.90
50907;DHT22;36882;27.680;85.304;2023-09-19T10:21:10;23.40;99.90
50907;DHT22;36882;27.680;85.304;2023-09-19T10:23:41;23.60;99.90
50907;DHT22;36882;27.680;85.304;2023-09-19T10:26:18;23.80;99.90
50907;DHT22;36882;27.680;85.304;2023-09-19T10:28:50;23.50;99.90
50907;DHT22;36882;27.680;85.304;2023-09-19T10:31:24;23.30;99.90
50907;DHT22;36882;27.680;85.304;2023-09-19T10:33:56;23.20;99.90
50907;DHT22;36882;27.680;85.304;2023-09-19T10:36:32;23.30;99.90
50907;DHT22;36882;27.680;85.304;2023-09-19T10:39:06;23.40;99.90
50907;DHT22;36882;27.680;85.304;2023-09-19T10:41:38;23.40;99.90
50907;DHT22;36882;27.680;85.304;2023-09-19T10:44:09;23.60;99.90
50907;DHT22;36882;27.680;85.304;2023-09-19T10:46:42;23.50;99.90
50907;DHT22;36882;27.680;85.304;2023-09-19T10:49:13;23.00;99.90
50907;DHT22;36882;27.680;85.304;2023-09-19T10:51:44;23.30;99.90
50907;DHT22;36882;27.680;85.304;2023-09-19T10:54:19;23.30;99.90
50907;DHT22;36882;27.680;85.304;2023-09-19T10:56:54;23.40;99.90
50907;DHT22;36882;27.680;85.304;2023-09-19T10:59:28;23.30;99.90
50907;DHT22;36882;27.680;85.304;2023-09-19T11:02:19;23.50;99.90
50907;DHT22;36882;27.680;85.304;2023-09-19T11:04:50;23.80;99.90
50907;DHT22;36882;27.680;85.304;2023-09-19T11:07:21;23.90;99.90
50907;DHT22;36882;27.680;85.304;2023-09-19T11:09:56;24.10;99.90
50907;DHT22;36882;27.680;85.304;2023-09-19T11:15:08;23.70;99.90
50907;DHT22;36882;27.680;85.304;2023-09-19T11:17:42;23.40;99.90
50907;DHT22;36882;27.680;85.304;2023-09-19T11:20:22;23.40;99.90
50907;DHT22;36882;27.680;85.304;2023-09-19T11:25:42;23.30;99.90
50907;DHT22;36882;27.680;85.304;2023-09-19T11:28:27;23.50;99.90
50907;DHT22;36882;27.680;85.304;2023-09-19T11:30:58;23.80;99.90
50907;DHT22;36882;27.680;85.304;2023-09-19T11:33:32;23.90;99.90
50907;DHT22;36882;27.680;85.304;2023-09-19T11:49:31;23.80;99.90
50907;DHT22;36882;27.680;85.304;2023-09-19T11:52:02;23.60;99.90
50907;DHT22;36882;27.680;85.304;2023-09-19T11:54:36;23.60;99.90
50907;DHT22;36882;27.680;85.304;2023-09-19T11:57:10;23.20;99.90
50907;DHT22;36882;27.680;85.304;2023-09-19T11:59:42;23.20;99.90
50907;DHT22;36882;27.680;85.304;2023-09-19T12:02:27;23.30;99.90
50907;DHT22;36882;27.680;85.304;2023-09-19T12:04:58;23.30;99.90
50907;DHT22;36882;27.680;85.304;2023-09-19T12:07:29;23.30;99.90
50907;DHT22;36882;27.680;85.304;2023-09-19T12:10:04;23.40;99.90
50907;DHT22;36882;27.680;85.304;2023-09-19T12:12:35;23.40;99.90
50907;DHT22;36882;27.680;85.304;2023-09-19T12:15:07;23.40;99.90
50907;DHT22;36882;27.680;85.304;2023-09-19T12:17:39;23.20;99.90
50907;DHT22;36882;27.680;85.304;2023-09-19T12:20:13;23.10;99.90
50907;DHT22;36882;27.680;85.304;2023-09-19T12:22:46;23.40;99.90
50907;DHT22;36882;27.680;85.304;2023-09-19T12:25:17;23.50;99.90
50907;DHT22;36882;27.680;85.304;2023-09-19T12:27:50;23.50;99.90
50907;DHT22;36882;27.680;85.304;2023-09-19T12:30:28;23.40;99.90
50907;DHT22;36882;27.680;85.304;2023-09-19T12:33:03;23.50;99.90
50907;DHT22;36882;27.680;85.304;2023-09-19T12:35:34;23.50;99.90
50907;DHT22;36882;27.680;85.304;2023-09-19T12:38:05;23.60;99.90
50907;DHT22;36882;27.680;85.304;2023-09-19T12:40:38;23.70;99.90
50907;DHT22;36882;27.680;85.304;2023-09-19T12:43:13;23.70;99.90
50907;DHT22;36882;27.680;85.304;2023-09-19T12:45:45;23.60;99.90
50907;DHT22;36882;27.680;85.304;2023-09-19T12:48:22;23.60;99.90
50907;DHT22;36882;27.680;85.304;2023-09-19T12:51:12;23.40;99.90
50907;DHT22;36882;27.680;85.304;2023-09-19T12:53:44;23.50;99.90
50907;DHT22;36882;27.680;85.304;2023-09-19T12:56:17;23.40;99.90
50907;DHT22;36882;27.680;85.304;2023-09-19T12:58:52;23.40;99.90
50907;DHT22;36882;27.680;85.304;2023-09-19T13:01:27;23.40;99.90
50907;DHT22;36882;27.680;85.304;2023-09-19T13:04:20;23.50;99.90
50907;DHT22;36882;27.680;85.304;2023-09-19T13:07:00;23.60;99.90
50907;DHT22;36882;27.680;85.304;2023-09-19T13:09:31;23.60;99.90
50907;DHT22;36882;27.680;85.304;2023-09-19T13:12:05;23.60;99.90
50907;DHT22;36882;27.680;85.304;2023-09-19T13:14:37;23.30;99.90
50907;DHT22;36882;27.680;85.304;2023-09-19T13:17:10;23.40;99.90
50907;DHT22;36882;27.680;85.304;2023-09-19T13:19:52;23.50;99.90
50907;DHT22;36882;27.680;85.304;2023-09-19T13:22:43;23.60;99.90
50907;DHT22;36882;27.680;85.304;2023-09-19T13:25:24;23.60;99.90
50907;DHT22;36882;27.680;85.304;2023-09-19T13:27:57;23.60;99.90
50907;DHT22;36882;27.680;85.304;2023-09-19T13:30:28;23.30;99.90
50907;DHT22;36882;27.680;85.304;2023-09-19T13:33:09;23.20;99.90
50907;DHT22;36882;27.680;85.304;2023-09-19T13:35:40;23.30;99.90
50907;DHT22;36882;27.680;85.304;2023-09-19T13:38:11;23.30;99.90
50907;DHT22;36882;27.680;85.304;2023-09-19T13:40:42;23.20;99.90
50907;DHT22;36882;27.680;85.304;2023-09-19T13:43:12;23.10;99.90
50907;DHT22;36882;27.680;85.304;2023-09-19T13:45:43;23.00;99.90
50907;DHT22;36882;27.680;85.304;2023-09-19T13:48:14;22.90;99.90
50907;DHT22;36882;27.680;85.304;2023-09-19T13:50:44;23.00;99.90
50907;DHT22;36882;27.680;85.304;2023-09-19T13:53:21;23.10;99.90
50907;DHT22;36882;27.680;85.304;2023-09-19T13:55:52;23.00;99.90
50907;DHT22;36882;27.680;85.304;2023-09-19T13:58:22;22.80;99.90
50907;DHT22;36882;27.680;85.304;2023-09-19T14:00:56;22.70;99.90
50907;DHT22;36882;27.680;85.304;2023-09-19T14:03:28;22.70;99.90
50907;DHT22;36882;27.680;85.304;2023-09-19T14:05:59;22.80;99.90
50907;DHT22;36882;27.680;85.304;2023-09-19T14:08:30;22.70;99.90
50907;DHT22;36882;27.680;85.304;2023-09-19T14:11:06;22.90;99.90
50907;DHT22;36882;27.680;85.304;2023-09-19T14:13:37;23.00;99.90
50907;DHT22;36882;27.680;85.304;2023-09-19T14:16:08;23.20;99.90
50907;DHT22;36882;27.680;85.304;2023-09-19T14:18:41;23.30;99.90
50907;DHT22;36882;27.680;85.304;2023-09-19T14:21:12;23.40;99.90
50907;DHT22;36882;27.680;85.304;2023-09-19T14:23:42;23.40;99.90
50907;DHT22;36882;27.680;85.304;2023-09-19T14:26:13;23.30;99.90
50907;DHT22;36882;27.680;85.304;2023-09-19T14:28:43;23.30;99.90
50907;DHT22;36882;27.680;85.304;2023-09-19T14:31:14;23.50;99.90
50907;DHT22;36882;27.680;85.304;2023-09-19T14:33:45;23.40;99.90
50907;DHT22;36882;27.680;85.304;2023-09-19T14:36:16;23.30;99.90
50907;DHT22;36882;27.680;85.304;2023-09-19T14:38:47;23.30;99.90
50907;DHT22;36882;27.680;85.304;2023-09-19T14:41:17;23.40;99.90
50907;DHT22;36882;27.680;85.304;2023-09-19T14:43:48;23.30;99.90
50907;DHT22;36882;27.680;85.304;2023-09-19T14:46:21;23.30;99.90
50907;DHT22;36882;27.680;85.304;2023-09-19T14:48:55;23.20;99.90
50907;DHT22;36882;27.680;85.304;2023-09-19T14:54:14;23.10;99.90
50907;DHT22;36882;27.680;85.304;2023-09-19T14:56:48;23.10;99.90
50907;DHT22;36882;27.680;85.304;2023-09-19T14:59:23;23.10;99.90
50907;DHT22;36882;27.680;85.304;2023-09-19T15:01:54;23.20;99.90
50907;DHT22;36882;27.680;85.304;2023-09-19T15:04:24;23.20;99.90
50907;DHT22;36882;27.680;85.304;2023-09-19T15:06:55;23.00;99.90
50907;DHT22;36882;27.680;85.304;2023-09-19T15:09:26;23.20;99.90
50907;DHT22;36882;27.680;85.304;2023-09-19T15:11:57;23.30;99.90
50907;DHT22;36882;27.680;85.304;2023-09-19T15:14:27;23.20;99.90
50907;DHT22;36882;27.680;85.304;2023-09-19T15:16:59;23.30;99.90
50907;DHT22;36882;27.680;85.304;2023-09-19T15:19:30;23.30;99.90
50907;DHT22;36882;27.680;85.304;2023-09-19T15:22:00;23.30;99.90
50907;DHT22;36882;27.680;85.304;2023-09-19T15:24:31;23.30;99.90
50907;DHT22;36882;27.680;85.304;2023-09-19T15:27:02;23.30;99.90
50907;DHT22;36882;27.680;85.304;2023-09-19T15:29:32;23.30;99.90
50907;DHT22;36882;27.680;85.304;2023-09-19T15:32:04;23.30;99.90
50907;DHT22;36882;27.680;85.304;2023-09-19T15:34:35;23.20;99.90
50907;DHT22;36882;27.680;85.304;2023-09-19T15:37:05;23.30;99.90
50907;DHT22;36882;27.680;85.304;2023-09-19T15:39:36;23.30;99.90
50907;DHT22;36882;27.680;85.304;2023-09-19T15:42:06;23.30;99.90
50907;DHT22;36882;27.680;85.304;2023-09-19T15:44:37;23.30;99.90
50907;DHT22;36882;27.680;85.304;2023-09-19T15:47:08;23.30;99.90
50907;DHT22;36882;27.680;85.304;2023-09-19T15:49:39;23.30;99.90
50907;DHT22;36882;27.680;85.304;2023-09-19T15:52:09;23.40;99.90
50907;DHT22;36882;27.680;85.304;2023-09-19T15:54:40;23.20;99.90
50907;DHT22;36882;27.680;85.304;2023-09-19T15:57:14;23.20;99.90
50907;DHT22;36882;27.680;85.304;2023-09-19T15:59:44;23.30;99.90
50907;DHT22;36882;27.680;85.304;2023-09-19T16:02:16;22.90;99.90
50907;DHT22;36882;27.680;85.304;2023-09-19T16:04:47;23.20;99.90
50907;DHT22;36882;27.680;85.304;2023-09-19T16:07:17;23.10;99.90
50907;DHT22;36882;27.680;85.304;2023-09-19T16:09:48;23.00;99.90
50907;DHT22;36882;27.680;85.304;2023-09-19T16:12:18;23.10;99.90
50907;DHT22;36882;27.680;85.304;2023-09-19T16:14:49;23.30;99.90
50907;DHT22;36882;27.680;85.304;2023-09-19T16:17:20;23.10;99.90
50907;DHT22;36882;27.680;85.304;2023-09-19T16:19:50;23.10;99.90
50907;DHT22;36882;27.680;85.304;2023-09-19T16:22:21;23.00;99.90
50907;DHT22;36882;27.680;85.304;2023-09-19T16:24:51;22.90;99.90
50907;DHT22;36882;27.680;85.304;2023-09-19T16:27:22;22.80;99.90
50907;DHT22;36882;27.680;85.304;2023-09-19T16:29:53;22.70;99.90
50907;DHT22;36882;27.680;85.304;2023-09-19T16:32:23;23.00;99.90
50907;DHT22;36882;27.680;85.304;2023-09-19T16:34:54;23.10;99.90
50907;DHT22;36882;27.680;85.304;2023-09-19T16:37:25;22.90;99.90
50907;DHT22;36882;27.680;85.304;2023-09-19T16:39:56;23.00;99.90
50907;DHT22;36882;27.680;85.304;2023-09-19T16:42:26;23.00;99.90
50907;DHT22;36882;27.680;85.304;2023-09-19T16:45:06;23.10;99.90
50907;DHT22;36882;27.680;85.304;2023-09-19T16:47:37;23.00;99.90
50907;DHT22;36882;27.680;85.304;2023-09-19T16:50:08;22.90;99.90
50907;DHT22;36882;27.680;85.304;2023-09-19T16:52:40;22.80;99.90
50907;DHT22;36882;27.680;85.304;2023-09-19T16:55:11;22.80;99.90
50907;DHT22;36882;27.680;85.304;2023-09-19T17:14:46;22.50;99.90